createdAt,value
2023-02-15T00:02:04.788Z,3.14
2023-02-15T00:04:46.448Z,3.11
2023-02-15T00:07:18.115Z,3.08
2023-02-15T00:09:49.633Z,3.04
2023-02-15T00:12:19.805Z,3.01
2023-02-15T00:14:47.539Z,3.00
2023-02-15T00:17:15.307Z,2.98
2023-02-15T00:19:43.052Z,2.97
2023-02-15T00:22:11.002Z,2.94
2023-02-15T00:24:40.125Z,2.93
2023-02-15T00:27:07.912Z,2.92
2023-02-15T00:29:35.716Z,2.88
2023-02-15T00:32:03.595Z,2.85
2023-02-15T00:34:31.357Z,2.82
2023-02-15T00:36:59.227Z,2.81
2023-02-15T00:39:28.228Z,2.79
2023-02-15T00:41:57.354Z,2.76
2023-02-15T00:44:25.170Z,2.74
2023-02-15T00:46:52.929Z,2.73
2023-02-15T00:49:20.741Z,2.72
2023-02-15T00:51:48.535Z,2.69
2023-02-15T00:54:16.392Z,2.67
2023-02-15T00:56:44.166Z,2.66
2023-02-15T00:59:13.385Z,2.68
2023-02-15T01:01:41.205Z,2.68
2023-02-15T01:04:09.067Z,2.68
2023-02-15T01:06:37.160Z,2.66
2023-02-15T01:09:05.276Z,2.63
2023-02-15T01:11:33.092Z,2.63
2023-02-15T01:14:01.186Z,2.63
2023-02-15T01:16:32.259Z,2.63
2023-02-15T01:19:00.015Z,2.62
2023-02-15T01:21:28.438Z,2.62
2023-02-15T01:23:56.217Z,2.57
2023-02-15T01:26:24.279Z,2.55
2023-02-15T01:28:52.018Z,2.54
2023-02-15T01:31:21.713Z,2.51
2023-02-15T01:33:51.479Z,2.48
2023-02-15T01:36:19.222Z,2.46
2023-02-15T01:38:47.307Z,2.43
2023-02-15T01:41:28.093Z,2.38
2023-02-15T01:43:57.369Z,2.35
2023-02-15T01:46:32.948Z,2.35
2023-02-15T01:49:09.052Z,2.32
2023-02-15T01:51:40.428Z,2.34
2023-02-15T01:54:15.730Z,2.37
2023-02-15T01:56:44.056Z,2.39
2023-02-15T01:59:15.556Z,2.40
2023-02-15T02:01:46.639Z,2.41
2023-02-15T02:04:20.822Z,2.41
2023-02-15T02:06:50.921Z,2.43
2023-02-15T02:09:18.752Z,2.45
2023-02-15T02:11:49.729Z,2.45
2023-02-15T02:14:18.680Z,2.46
2023-02-15T02:16:54.375Z,2.47
2023-02-15T02:19:56.412Z,2.46
2023-02-15T02:22:47.429Z,2.48
2023-02-15T02:25:33.094Z,2.50
2023-02-15T02:28:18.630Z,2.49
2023-02-15T02:31:04.879Z,2.51
2023-02-15T02:33:56.301Z,2.50
2023-02-15T02:36:30.947Z,2.50
2023-02-15T02:39:14.858Z,2.50
2023-02-15T02:41:52.784Z,2.49
2023-02-15T02:44:25.659Z,2.49
2023-02-15T02:46:56.814Z,2.49
2023-02-15T02:49:37.348Z,2.46
2023-02-15T02:52:08.802Z,2.44
2023-02-15T02:54:38.024Z,2.46
2023-02-15T02:57:10.848Z,2.45
2023-02-15T02:59:43.697Z,2.44
2023-02-15T03:02:15.694Z,2.40
2023-02-15T03:04:50.385Z,2.39
2023-02-15T03:07:23.210Z,2.38
2023-02-15T03:09:53.506Z,2.36
2023-02-15T03:12:24.240Z,2.33
2023-02-15T03:14:55.283Z,2.30
2023-02-15T03:17:25.622Z,2.30
2023-02-15T03:19:59.690Z,2.32
2023-02-15T03:22:31.131Z,2.32
2023-02-15T03:25:01.818Z,2.30
2023-02-15T03:27:35.564Z,2.28
2023-02-15T03:30:04.514Z,2.25
2023-02-15T03:32:34.441Z,2.26
2023-02-15T03:35:04.227Z,2.25
2023-02-15T03:37:37.588Z,2.26
2023-02-15T03:40:25.841Z,2.24
2023-02-15T03:43:04.550Z,2.23
2023-02-15T03:45:35.290Z,2.23
2023-02-15T03:48:05.160Z,2.21
2023-02-15T03:50:55.840Z,2.19
2023-02-15T03:53:25.532Z,2.17
2023-02-15T03:55:56.778Z,2.17
2023-02-15T03:58:41.960Z,2.16
2023-02-15T04:01:38.064Z,2.14
2023-02-15T04:04:12.649Z,2.13
2023-02-15T04:06:41.752Z,2.13
2023-02-15T04:09:26.792Z,2.13
2023-02-15T04:11:54.562Z,2.12
2023-02-15T04:14:39.599Z,2.12
2023-02-15T04:17:07.831Z,2.13
2023-02-15T04:19:53.438Z,2.14
2023-02-15T04:22:40.117Z,2.14
2023-02-15T04:25:13.967Z,2.14
2023-02-15T04:27:43.457Z,2.15
2023-02-15T04:30:13.770Z,2.15
2023-02-15T04:32:41.936Z,2.15
2023-02-15T04:35:10.767Z,2.13
2023-02-15T04:37:40.768Z,2.13
2023-02-15T04:40:09.981Z,2.12
2023-02-15T04:42:37.801Z,2.11
2023-02-15T04:45:06.535Z,2.11
2023-02-15T04:47:34.382Z,2.09
2023-02-15T04:50:02.164Z,2.08
2023-02-15T04:52:29.932Z,2.08
2023-02-15T04:54:59.111Z,2.08
2023-02-15T04:57:26.900Z,2.08
2023-02-15T04:59:54.663Z,2.07
2023-02-15T05:02:22.412Z,2.05
2023-02-15T05:04:50.135Z,2.04
2023-02-15T05:07:18.616Z,2.03
2023-02-15T05:09:46.396Z,2.02
2023-02-15T05:12:15.505Z,2.00
2023-02-15T05:14:43.314Z,1.98
2023-02-15T05:17:11.033Z,1.98
2023-02-15T05:19:38.816Z,1.98
2023-02-15T05:22:06.624Z,1.97
2023-02-15T05:24:51.654Z,1.96
2023-02-15T05:27:38.627Z,1.94
2023-02-15T05:30:12.508Z,1.93
2023-02-15T05:32:40.804Z,1.92
2023-02-15T05:35:09.543Z,1.90
2023-02-15T05:37:37.330Z,1.88
2023-02-15T05:40:05.423Z,1.88
2023-02-15T05:42:34.784Z,1.85
2023-02-15T05:45:04.720Z,1.84
2023-02-15T05:47:32.488Z,1.82
2023-02-15T05:50:01.462Z,1.78
2023-02-15T05:52:29.178Z,1.73
2023-02-15T05:54:56.875Z,1.73
2023-02-15T05:57:24.706Z,1.73
2023-02-15T05:59:53.828Z,1.72
2023-02-15T06:02:21.665Z,1.71
2023-02-15T06:04:49.535Z,1.68
2023-02-15T06:07:17.242Z,1.65
2023-02-15T06:09:45.028Z,1.62
2023-02-15T06:12:15.629Z,1.62
2023-02-15T06:14:43.430Z,1.59
2023-02-15T06:17:12.551Z,1.58
2023-02-15T06:19:40.283Z,1.57
2023-02-15T06:22:08.379Z,1.57
2023-02-15T06:24:36.172Z,1.56
2023-02-15T06:27:03.896Z,1.55
2023-02-15T06:29:31.649Z,1.53
2023-02-15T06:31:59.492Z,1.50
2023-02-15T06:34:28.860Z,1.48
2023-02-15T06:36:56.627Z,1.47
2023-02-15T06:39:24.326Z,1.48
2023-02-15T06:41:52.175Z,1.49
2023-02-15T06:44:19.888Z,1.50
2023-02-15T06:46:47.776Z,1.50
2023-02-15T06:49:15.539Z,1.50
2023-02-15T06:51:44.766Z,1.49
2023-02-15T06:54:12.673Z,1.47
2023-02-15T06:56:40.463Z,1.48
2023-02-15T06:59:08.218Z,1.47
2023-02-15T07:01:37.937Z,1.46
2023-02-15T07:04:06.258Z,1.43
2023-02-15T07:06:34.933Z,1.44
2023-02-15T07:09:04.144Z,1.44
2023-02-15T07:11:50.443Z,1.43
2023-02-15T07:14:18.187Z,1.41
2023-02-15T07:16:45.959Z,1.44
2023-02-15T07:19:16.650Z,1.43
2023-02-15T07:21:44.995Z,1.42
2023-02-15T07:24:14.168Z,1.44
2023-02-15T07:26:41.875Z,1.44
2023-02-15T07:29:10.033Z,1.48
2023-02-15T07:31:37.778Z,1.49
2023-02-15T07:34:07.350Z,1.51
2023-02-15T07:36:35.114Z,1.54
2023-02-15T07:39:02.882Z,1.57
2023-02-15T07:41:32.031Z,1.57
2023-02-15T07:43:59.789Z,1.58
2023-02-15T07:46:27.561Z,1.60
2023-02-15T07:48:55.546Z,1.63
2023-02-15T07:51:23.475Z,1.63
2023-02-15T07:53:52.511Z,1.65
2023-02-15T07:56:20.332Z,1.66
2023-02-15T07:58:56.761Z,1.67
2023-02-15T08:01:26.534Z,1.68
2023-02-15T08:03:55.420Z,1.69
2023-02-15T08:06:24.722Z,1.71
2023-02-15T08:08:52.571Z,1.70
2023-02-15T08:11:30.192Z,1.71
2023-02-15T08:14:01.281Z,1.73
2023-02-15T08:16:31.865Z,1.73
2023-02-15T08:19:01.077Z,1.76
2023-02-15T08:21:30.381Z,1.79
2023-02-15T08:23:58.468Z,1.85
2023-02-15T08:26:27.662Z,1.86
2023-02-15T08:28:55.991Z,1.89
2023-02-15T08:31:25.596Z,1.94
2023-02-15T08:33:55.240Z,1.99
2023-02-15T08:36:24.856Z,2.05
2023-02-15T08:38:52.782Z,2.09
2023-02-15T08:41:22.393Z,2.12
2023-02-15T08:43:53.198Z,2.15
2023-02-15T08:46:21.609Z,2.20
2023-02-15T08:48:50.845Z,2.25
2023-02-15T08:51:20.937Z,2.32
2023-02-15T08:53:51.077Z,2.39
2023-02-15T08:56:20.435Z,2.47
2023-02-15T08:58:48.376Z,2.54
2023-02-15T09:01:19.248Z,2.60
2023-02-15T09:03:48.052Z,2.67
2023-02-15T09:06:17.845Z,2.76
2023-02-15T09:08:45.923Z,2.82
2023-02-15T09:11:17.697Z,2.88
2023-02-15T09:13:46.138Z,2.96
2023-02-15T09:16:13.903Z,3.03
2023-02-15T09:18:41.789Z,3.09
2023-02-15T09:21:10.754Z,3.15
2023-02-15T09:23:39.818Z,3.21
2023-02-15T09:26:09.851Z,3.28
2023-02-15T09:28:37.826Z,3.36
2023-02-15T09:31:10.769Z,3.45
2023-02-15T09:33:39.903Z,3.51
2023-02-15T09:36:15.384Z,3.60
2023-02-15T09:38:44.627Z,3.69
2023-02-15T09:41:40.124Z,3.81
2023-02-15T09:44:19.280Z,3.92
2023-02-15T09:47:03.818Z,4.05
2023-02-15T09:49:43.132Z,4.17
2023-02-15T09:52:41.430Z,4.28
2023-02-15T09:55:27.658Z,4.40
2023-02-15T09:58:04.356Z,4.51
2023-02-15T10:00:40.454Z,4.60
2023-02-15T10:03:41.998Z,4.71
2023-02-15T10:06:29.856Z,4.81
2023-02-15T10:09:08.922Z,4.91
2023-02-15T10:11:51.653Z,5.01
2023-02-15T10:14:43.267Z,5.12
2023-02-15T10:17:23.872Z,5.26
2023-02-15T10:20:06.572Z,5.37
2023-02-15T10:22:45.514Z,5.48
2023-02-15T10:25:33.105Z,5.56
2023-02-15T10:28:07.520Z,5.63
2023-02-15T10:30:46.778Z,5.68
2023-02-15T10:33:26.389Z,5.73
2023-02-15T10:36:04.284Z,5.81
2023-02-15T10:38:42.302Z,5.90
2023-02-15T10:41:24.289Z,5.99
2023-02-15T10:44:07.452Z,6.07
2023-02-15T10:46:50.379Z,6.14
2023-02-15T10:49:34.946Z,6.20
2023-02-15T10:52:19.622Z,6.28
2023-02-15T10:54:53.704Z,6.37
2023-02-15T10:57:32.775Z,6.44
2023-02-15T11:00:10.447Z,6.53
2023-02-15T11:02:52.498Z,6.62
2023-02-15T11:05:33.528Z,6.73
2023-02-15T11:08:05.980Z,6.84
2023-02-15T11:10:38.179Z,6.96
2023-02-15T11:13:11.321Z,7.08
2023-02-15T11:15:46.412Z,7.21
2023-02-15T11:18:21.265Z,7.31
2023-02-15T11:20:56.620Z,7.41
2023-02-15T11:23:27.020Z,7.49
2023-02-15T11:25:58.821Z,7.58
2023-02-15T11:28:33.298Z,7.70
2023-02-15T11:31:12.534Z,7.81
2023-02-15T11:33:45.372Z,7.90
2023-02-15T11:36:18.201Z,7.95
2023-02-15T11:38:49.226Z,7.98
2023-02-15T11:41:21.177Z,8.06
2023-02-15T11:44:00.523Z,8.14
2023-02-15T11:46:29.856Z,8.21
2023-02-15T11:48:59.334Z,8.28
2023-02-15T11:51:29.878Z,8.37
2023-02-15T11:53:58.538Z,8.46
2023-02-15T11:56:27.845Z,8.52
2023-02-15T11:58:59.281Z,8.58
2023-02-15T12:01:33.892Z,8.69
2023-02-15T12:04:06.200Z,8.82
2023-02-15T12:06:39.683Z,8.92
2023-02-15T12:09:23.488Z,9.02
2023-02-15T12:11:51.488Z,9.11
2023-02-15T12:14:19.253Z,9.21
2023-02-15T12:16:51.227Z,9.30
2023-02-15T12:19:40.944Z,9.44
2023-02-15T12:22:20.524Z,9.56
2023-02-15T12:24:50.031Z,9.67
2023-02-15T12:27:23.355Z,9.76
2023-02-15T12:29:53.331Z,9.85
2023-02-15T12:32:27.677Z,9.91
2023-02-15T12:35:02.298Z,9.95
2023-02-15T12:37:35.669Z,10.00
2023-02-15T12:40:20.686Z,9.98
2023-02-15T12:42:48.422Z,9.97
2023-02-15T12:45:26.244Z,9.96
2023-02-15T12:48:16.908Z,9.95
2023-02-15T12:50:45.693Z,9.98
2023-02-15T12:53:19.850Z,10.01
2023-02-15T12:55:56.657Z,10.01
2023-02-15T12:58:26.347Z,10.01
2023-02-15T13:01:11.904Z,10.05
2023-02-15T13:03:57.379Z,10.09
2023-02-15T13:06:25.352Z,10.17
2023-02-15T13:08:56.080Z,10.25
2023-02-15T13:11:30.296Z,10.32
2023-02-15T13:14:01.397Z,10.37
2023-02-15T13:16:33.832Z,10.38
2023-02-15T13:19:07.598Z,10.35
2023-02-15T13:21:40.713Z,10.33
2023-02-15T13:24:17.403Z,10.31
2023-02-15T13:26:48.173Z,10.30
2023-02-15T13:29:23.399Z,10.28
2023-02-15T13:31:52.256Z,10.27
2023-02-15T13:34:26.917Z,10.28
2023-02-15T13:37:03.234Z,10.30
2023-02-15T13:39:41.157Z,10.30
2023-02-15T13:42:22.399Z,10.35
2023-02-15T13:45:04.983Z,10.37
2023-02-15T13:47:45.410Z,10.40
2023-02-15T13:50:30.716Z,10.42
2023-02-15T13:53:04.600Z,10.42
2023-02-15T13:55:38.624Z,10.41
2023-02-15T13:58:52.467Z,10.43
2023-02-15T14:01:28.569Z,10.45
2023-02-15T14:04:35.080Z,10.44
2023-02-15T14:07:22.129Z,10.42
2023-02-15T14:09:59.796Z,10.39
2023-02-15T14:12:40.898Z,10.39
2023-02-15T14:15:24.728Z,10.40
2023-02-15T14:18:02.914Z,10.39
2023-02-15T14:20:45.197Z,10.39
2023-02-15T14:23:30.543Z,10.40
2023-02-15T14:26:04.078Z,10.44
2023-02-15T14:28:39.823Z,10.47
2023-02-15T14:31:11.534Z,10.45
2023-02-15T14:33:41.282Z,10.44
2023-02-15T14:36:12.936Z,10.46
2023-02-15T14:39:00.915Z,10.45
2023-02-15T14:41:33.686Z,10.45
2023-02-15T14:44:08.326Z,10.44
2023-02-15T14:46:41.364Z,10.42
2023-02-15T14:49:14.280Z,10.41
2023-02-15T14:52:00.105Z,10.41
2023-02-15T14:55:01.478Z,10.38
2023-02-15T14:57:36.193Z,10.37
2023-02-15T15:00:37.704Z,10.36
2023-02-15T15:03:13.912Z,10.37
2023-02-15T15:05:51.817Z,10.34
2023-02-15T15:08:28.451Z,10.33
2023-02-15T15:10:57.716Z,10.30
2023-02-15T15:13:40.583Z,10.26
2023-02-15T15:16:31.623Z,10.26
2023-02-15T15:19:00.233Z,10.22
2023-02-15T15:22:03.868Z,10.18
2023-02-15T15:24:52.019Z,10.17
2023-02-15T15:27:46.013Z,10.17
2023-02-15T15:30:51.052Z,10.12
2023-02-15T15:33:39.438Z,10.12
2023-02-15T15:36:31.650Z,10.11
2023-02-15T15:39:12.059Z,10.08
2023-02-15T15:41:44.004Z,10.05
2023-02-15T15:44:58.009Z,10.01
2023-02-15T15:47:44.691Z,10.00
2023-02-15T15:50:15.257Z,9.99
2023-02-15T15:52:48.714Z,9.97
2023-02-15T15:55:19.075Z,9.95
2023-02-15T15:57:50.606Z,9.90
2023-02-15T16:00:40.866Z,9.87
2023-02-15T16:03:17.097Z,9.84
2023-02-15T16:05:44.938Z,9.83
2023-02-15T16:08:12.681Z,9.78
2023-02-15T16:10:40.592Z,9.76
2023-02-15T16:13:09.050Z,9.75
2023-02-15T16:15:46.471Z,9.74
2023-02-15T16:18:17.924Z,9.72
2023-02-15T16:20:53.944Z,9.69
2023-02-15T16:23:58.546Z,9.65
2023-02-15T16:26:47.600Z,9.63
2023-02-15T16:29:17.459Z,9.61
2023-02-15T16:32:00.782Z,9.59
2023-02-15T16:34:33.333Z,9.56
2023-02-15T16:37:22.860Z,9.53
2023-02-15T16:39:51.164Z,9.51
2023-02-15T16:42:19.980Z,9.48
2023-02-15T16:44:50.023Z,9.45
2023-02-15T16:47:24.193Z,9.40
2023-02-15T16:49:54.863Z,9.36
2023-02-15T16:52:25.153Z,9.30
2023-02-15T16:54:57.393Z,9.25
2023-02-15T16:57:29.733Z,9.20
2023-02-15T17:00:02.300Z,9.14
2023-02-15T17:02:55.656Z,9.08
2023-02-15T17:05:22.604Z,9.03
2023-02-15T17:08:07.985Z,8.96
2023-02-15T17:10:38.337Z,8.94
2023-02-15T17:13:11.716Z,8.92
2023-02-15T17:15:41.305Z,8.89
2023-02-15T17:18:18.743Z,8.87
2023-02-15T17:20:47.613Z,8.88
2023-02-15T17:23:24.284Z,8.83
2023-02-15T17:25:52.814Z,8.82
2023-02-15T17:28:22.736Z,8.79
2023-02-15T17:30:53.498Z,8.75
2023-02-15T17:33:29.872Z,8.73
2023-02-15T17:36:09.829Z,8.70
2023-02-15T17:38:38.410Z,8.67
2023-02-15T17:41:06.314Z,8.64
2023-02-15T17:43:34.123Z,8.63
2023-02-15T17:46:01.995Z,8.59
2023-02-15T17:48:35.285Z,8.58
2023-02-15T17:51:05.282Z,8.54
2023-02-15T17:53:33.701Z,8.51
2023-02-15T17:56:00.436Z,8.49
2023-02-15T17:58:28.193Z,8.44
2023-02-15T18:01:16.402Z,8.40
2023-02-15T18:04:05.867Z,8.38
2023-02-15T18:06:52.131Z,8.33
2023-02-15T18:09:39.217Z,8.30
2023-02-15T18:12:20.447Z,8.25
2023-02-15T18:14:48.314Z,8.20
2023-02-15T18:17:17.489Z,8.16
2023-02-15T18:19:48.073Z,8.14
2023-02-15T18:22:19.777Z,8.11
2023-02-15T18:24:48.181Z,8.09
2023-02-15T18:27:17.229Z,8.07
2023-02-15T18:29:45.013Z,8.03
2023-02-15T18:32:19.582Z,8.01
2023-02-15T18:34:49.874Z,7.97
2023-02-15T18:37:20.737Z,7.95
2023-02-15T18:39:50.235Z,7.90
2023-02-15T18:42:22.440Z,7.85
2023-02-15T18:44:51.881Z,7.84
2023-02-15T18:47:22.542Z,7.80
2023-02-15T18:49:51.734Z,7.77
2023-02-15T18:52:22.526Z,7.77
2023-02-15T18:54:59.847Z,7.73
2023-02-15T18:57:29.295Z,7.72
2023-02-15T18:59:57.189Z,7.70
2023-02-15T19:02:25.178Z,7.67
2023-02-15T19:04:54.416Z,7.65
2023-02-15T19:07:26.182Z,7.61
2023-02-15T19:10:00.757Z,7.57
2023-02-15T19:12:29.038Z,7.53
2023-02-15T19:14:57.068Z,7.49
2023-02-15T19:17:25.577Z,7.47
2023-02-15T19:19:54.933Z,7.45
2023-02-15T19:22:27.252Z,7.41
2023-02-15T19:24:59.073Z,7.37
2023-02-15T19:27:30.075Z,7.34
2023-02-15T19:29:59.767Z,7.30
2023-02-15T19:32:28.457Z,7.29
2023-02-15T19:34:57.685Z,7.25
2023-02-15T19:37:31.397Z,7.25
2023-02-15T19:39:59.343Z,7.23
2023-02-15T19:42:27.638Z,7.21
2023-02-15T19:44:55.913Z,7.18
2023-02-15T19:47:23.711Z,7.15
2023-02-15T19:49:51.765Z,7.10
2023-02-15T19:52:24.239Z,7.05
2023-02-15T19:54:54.293Z,7.02
2023-02-15T19:57:22.561Z,6.99
2023-02-15T19:59:50.454Z,6.95
2023-02-15T20:02:20.220Z,6.95
2023-02-15T20:04:48.166Z,6.91
2023-02-15T20:07:26.071Z,6.86
2023-02-15T20:09:54.124Z,6.83
2023-02-15T20:12:28.632Z,6.81
2023-02-15T20:14:58.435Z,6.80
2023-02-15T20:17:26.338Z,6.74
2023-02-15T20:19:55.080Z,6.72
2023-02-15T20:22:26.195Z,6.68
2023-02-15T20:24:56.286Z,6.66
2023-02-15T20:27:25.051Z,6.62
2023-02-15T20:29:56.701Z,6.61
2023-02-15T20:32:25.122Z,6.56
2023-02-15T20:34:52.938Z,6.54
2023-02-15T20:37:28.910Z,6.52
2023-02-15T20:39:57.046Z,6.48
2023-02-15T20:42:25.027Z,6.47
2023-02-15T20:44:52.826Z,6.47
2023-02-15T20:47:20.691Z,6.43
2023-02-15T20:49:48.519Z,6.42
2023-02-15T20:52:20.589Z,6.38
2023-02-15T20:54:49.881Z,6.38
2023-02-15T20:57:17.697Z,6.36
2023-02-15T20:59:46.011Z,6.38
2023-02-15T21:02:18.930Z,6.35
2023-02-15T21:04:47.143Z,6.36
2023-02-15T21:07:17.023Z,6.34
2023-02-15T21:09:44.973Z,6.31
2023-02-15T21:12:15.621Z,6.31
2023-02-15T21:14:43.911Z,6.30
2023-02-15T21:17:13.003Z,6.28
2023-02-15T21:19:41.521Z,6.25
2023-02-15T21:22:13.108Z,6.24
2023-02-15T21:24:45.740Z,6.21
2023-02-15T21:27:15.120Z,6.20
2023-02-15T21:29:42.917Z,6.19
2023-02-15T21:32:11.315Z,6.19
2023-02-15T21:34:39.928Z,6.19
2023-02-15T21:37:27.454Z,6.15
2023-02-15T21:39:55.302Z,6.14
2023-02-15T21:42:41.875Z,6.16
2023-02-15T21:45:32.849Z,6.17
2023-02-15T21:48:00.763Z,6.16
2023-02-15T21:50:46.431Z,6.14
2023-02-15T21:53:21.772Z,6.12
2023-02-15T21:55:50.191Z,6.12
2023-02-15T21:58:23.002Z,6.13
2023-02-15T22:00:50.897Z,6.12
2023-02-15T22:03:18.717Z,6.14
2023-02-15T22:05:46.437Z,6.17
2023-02-15T22:08:14.613Z,6.16
2023-02-15T22:10:42.989Z,6.15
2023-02-15T22:13:14.990Z,6.15
2023-02-15T22:15:46.797Z,6.12
2023-02-15T22:18:24.206Z,6.16
2023-02-15T22:20:52.643Z,6.17
2023-02-15T22:23:20.862Z,6.17
2023-02-15T22:25:54.714Z,6.17
2023-02-15T22:28:24.252Z,6.15
2023-02-15T22:30:53.397Z,6.17
2023-02-15T22:33:27.022Z,6.18
2023-02-15T22:35:54.862Z,6.16
2023-02-15T22:38:23.017Z,6.17
2023-02-15T22:40:52.562Z,6.15
2023-02-15T22:43:28.974Z,6.14
2023-02-15T22:46:03.027Z,6.15
2023-02-15T22:48:31.174Z,6.11
2023-02-15T22:50:58.961Z,6.12
2023-02-15T22:53:27.036Z,6.12
2023-02-15T22:55:56.358Z,6.09
2023-02-15T22:58:28.125Z,6.07
2023-02-15T23:00:56.007Z,6.06
2023-02-15T23:03:28.716Z,6.07
2023-02-15T23:05:56.507Z,6.07
2023-02-15T23:08:24.304Z,6.04
2023-02-15T23:10:55.732Z,6.02
2023-02-15T23:13:26.713Z,6.01
2023-02-15T23:15:57.958Z,5.98
2023-02-15T23:18:29.457Z,5.95
2023-02-15T23:20:58.868Z,5.93
2023-02-15T23:23:31.609Z,5.93
2023-02-15T23:25:59.619Z,5.92
2023-02-15T23:28:29.857Z,5.92
2023-02-15T23:30:59.679Z,5.89
2023-02-15T23:33:32.296Z,5.88
2023-02-15T23:36:00.391Z,5.88
2023-02-15T23:38:30.286Z,5.85
2023-02-15T23:41:18.169Z,5.85
2023-02-15T23:43:48.951Z,5.84
2023-02-15T23:46:29.246Z,5.84
2023-02-15T23:48:58.638Z,5.82
2023-02-15T23:51:30.923Z,5.79
2023-02-15T23:53:59.098Z,5.79
2023-02-15T23:56:26.846Z,5.77
2023-02-15T23:58:54.722Z,5.76
